< < Back
Terminal Aerodrome Forecast


Current Version              Previous Versions:   1  2  3  4  5  6  7  8  9  

Terminal Aerodrome Forecast

182
FTUS44 KBMX 291700
TAFTCL
TAF
KTCL 291730Z 2918/3018 19011G16KT P6SM SCT035 BKN060
     FM300000 33008G15KT 6SM BR VCSH SCT015 OVC025
     FM300600 35008KT P6SM OVC050
     FM301500 36012KT P6SM SCT050 BKN250=

Latest METAR

066
SAUS70 KWBC 291800 RRB
MTRTCL
METAR KTCL 291753Z 21013KT 10SM CLR 18/07 A3018 RMK AO2 SLP219 T01780067
10178 20022 58023


USA.gov is the U.S. government's official web portal to all federal, state and local government web resources and services.